Time;durP1;ratioP1;P1;durP2;ratioP2;P2;SDS_P1;SDS_P2;PMS_P1;PMS_P2;Temp;Humidity;BMP_temperature;BMP_pressure;BME280_temperature;BME280_humidity;BME280_pressure;Samples;Min_cycle;Max_cycle;Signal;HPM_P1;HPM_P2
2021/12/06 00:01:09;;;;;;;10.57;7.10;;;22.30;57.80;;;;;;5057345;28;20045;-70
2021/12/06 00:03:50;;;;;;;11.43;7.55;;;22.30;57.80;;;;;;5057061;28;20555;-70
2021/12/06 00:06:18;;;;;;;13.20;6.70;;;22.30;57.90;;;;;;5057226;28;20052;-70
2021/12/06 00:08:44;;;;;;;13.27;7.40;;;22.30;58.00;;;;;;5057236;28;20080;-70
2021/12/06 00:11:11;;;;;;;15.45;8.02;;;22.30;58.00;;;;;;5057199;28;20113;-70
2021/12/06 00:13:39;;;;;;;12.48;7.88;;;22.30;58.00;;;;;;5056815;28;20042;-71
2021/12/06 00:16:11;;;;;;;12.90;6.85;;;22.10;57.80;;;;;;5057023;28;20047;-70
2021/12/06 00:18:37;;;;;;;9.68;6.35;;;22.10;58.00;;;;;;5056818;28;20080;-70
2021/12/06 00:21:04;;;;;;;11.05;6.85;;;22.20;58.10;;;;;;5057133;28;20064;-70
2021/12/06 00:23:31;;;;;;;11.18;6.82;;;22.10;58.20;;;;;;5056897;28;20049;-70
2021/12/06 00:25:58;;;;;;;10.73;6.43;;;22.10;58.00;;;;;;5056812;28;20045;-70
2021/12/06 00:28:25;;;;;;;10.55;6.50;;;22.10;58.00;;;;;;5056820;28;20052;-70
2021/12/06 00:30:52;;;;;;;11.98;7.10;;;22.10;57.90;;;;;;5056164;28;20038;-70
2021/12/06 00:33:19;;;;;;;10.95;6.28;;;22.10;57.90;;;;;;5056028;28;20033;-70
2021/12/06 00:35:46;;;;;;;12.77;6.47;;;22.20;57.90;;;;;;5056210;28;20041;-70
2021/12/06 00:38:13;;;;;;;12.63;7.47;;;22.20;57.60;;;;;;5056744;28;20042;-70
2021/12/06 00:40:45;;;;;;;12.65;7.38;;;22.20;57.50;;;;;;5070660;28;20087;-70
2021/12/06 00:43:12;;;;;;;11.70;7.75;;;22.20;57.50;;;;;;5076615;28;20104;-70
2021/12/06 00:45:40;;;;;;;12.10;7.28;;;22.20;57.50;;;;;;5076131;28;20056;-70
2021/12/06 00:48:07;;;;;;;12.13;7.57;;;22.20;57.70;;;;;;5076311;28;20032;-70
2021/12/06 00:50:37;;;;;;;10.35;7.07;;;22.20;57.50;;;;;;5076722;28;20044;-70
2021/12/06 00:53:04;;;;;;;12.50;6.72;;;22.20;57.50;;;;;;5076537;28;20673;-70
2021/12/06 00:55:31;;;;;;;12.23;6.95;;;22.10;57.50;;;;;;5076495;28;20049;-70
2021/12/06 00:57:57;;;;;;;11.15;6.30;;;22.20;57.60;;;;;;5076649;28;20048;-70
2021/12/06 01:00:35;;;;;;;13.18;7.07;;;22.10;57.60;;;;;;5059392;28;20079;-70
2021/12/06 01:03:09;;;;;;;11.23;6.20;;;22.00;57.50;;;;;;5059132;28;20048;-70
2021/12/06 01:05:37;;;;;;;10.63;6.57;;;22.10;57.60;;;;;;5076440;28;20036;-70
2021/12/06 01:08:03;;;;;;;16.08;7.22;;;22.00;57.50;;;;;;5076344;28;20048;-70
2021/12/06 01:10:32;;;;;;;12.88;7.63;;;22.00;57.50;;;;;;5076311;28;20049;-70
2021/12/06 01:12:58;;;;;;;12.85;7.43;;;21.90;57.60;;;;;;5076311;28;20108;-70
2021/12/06 01:15:27;;;;;;;16.40;8.52;;;22.00;57.60;;;;;;5076335;28;20077;-70
2021/12/06 01:17:55;;;;;;;13.35;7.25;;;22.00;57.70;;;;;;5076335;28;20049;-70
2021/12/06 01:20:26;;;;;;;11.57;7.05;;;22.00;57.80;;;;;;5059104;28;20076;-70
2021/12/06 01:22:58;;;;;;;14.73;8.68;;;21.90;57.80;;;;;;5058786;28;20097;-70
2021/12/06 01:28:19;;;;;;;11.50;6.78;;;22.00;57.30;;;;;;5059132;28;20063;-70
2021/12/06 01:41:24;;;;;;;12.35;7.85;;;22.10;57.30;;;;;;5059044;28;20061;-70
2021/12/06 01:44:07;;;;;;;14.82;7.85;;;22.10;57.20;;;;;;5058507;28;20049;-71
2021/12/06 01:46:40;;;;;;;14.52;8.00;;;22.10;57.10;;;;;;5058971;28;20037;-70
2021/12/06 01:49:07;;;;;;;13.80;7.85;;;22.10;57.20;;;;;;5062418;28;20048;-70
2021/12/06 01:51:33;;;;;;;15.75;8.18;;;22.00;57.10;;;;;;5079713;28;20033;-70
2021/12/06 01:54:00;;;;;;;15.57;8.90;;;22.00;57.10;;;;;;5062381;28;20104;-70
2021/12/06 01:56:26;;;;;;;15.88;9.07;;;22.10;57.20;;;;;;5062597;28;20049;-70
2021/12/06 01:58:53;;;;;;;13.00;8.40;;;22.00;57.20;;;;;;5062071;28;20049;-69
2021/12/06 02:01:20;;;;;;;16.45;8.63;;;22.00;57.10;;;;;;5062097;28;20052;-70
2021/12/06 02:03:46;;;;;;;16.98;8.10;;;21.90;57.20;;;;;;5062033;28;20044;-70
2021/12/06 02:06:12;;;;;;;17.58;9.02;;;21.90;57.30;;;;;;5062343;28;20056;-70
2021/12/06 02:08:38;;;;;;;18.85;8.85;;;21.90;57.40;;;;;;5079374;28;20044;-70
2021/12/06 02:11:05;;;;;;;13.73;8.07;;;21.90;57.50;;;;;;5060879;28;20112;-70
2021/12/06 02:13:51;;;;;;;13.80;8.60;;;21.80;57.30;;;;;;5059832;28;20044;-70
2021/12/06 02:16:22;;;;;;;14.65;8.05;;;21.70;57.30;;;;;;5062099;28;20057;-70
2021/12/06 02:18:54;;;;;;;17.98;8.98;;;21.80;57.20;;;;;;5062026;28;20051;-70
2021/12/06 02:21:31;;;;;;;20.63;9.47;;;21.90;57.20;;;;;;5062118;28;20060;-70
2021/12/06 02:24:03;;;;;;;19.92;8.70;;;21.90;57.20;;;;;;5061854;28;20049;-70
2021/12/06 02:26:29;;;;;;;17.30;8.40;;;21.90;57.20;;;;;;5061864;28;20047;-70
2021/12/06 02:28:55;;;;;;;14.57;8.60;;;21.80;57.00;;;;;;5079246;28;20045;-70
2021/12/06 02:31:25;;;;;;;19.23;8.90;;;22.00;57.00;;;;;;5061866;28;20522;-70
2021/12/06 02:33:53;;;;;;;13.70;7.78;;;21.90;57.00;;;;;;5078759;28;20063;-70
2021/12/06 02:36:22;;;;;;;17.45;9.00;;;22.00;56.90;;;;;;5061693;28;20049;-70
2021/12/06 02:38:48;;;;;;;16.70;8.65;;;21.90;56.80;;;;;;5078840;28;20037;-70
2021/12/06 02:41:18;;;;;;;17.48;9.55;;;21.90;56.80;;;;;;5061624;28;20076;-70
2021/12/06 02:43:44;;;;;;;16.55;8.70;;;21.90;56.80;;;;;;5078701;28;20072;-70
2021/12/06 02:46:12;;;;;;;14.77;8.52;;;21.90;56.80;;;;;;5061325;28;20037;-70
2021/12/06 02:48:39;;;;;;;18.05;8.30;;;21.90;56.80;;;;;;5078890;28;20041;-70
2021/12/06 02:51:07;;;;;;;17.45;9.52;;;21.80;56.60;;;;;;5078790;28;20036;-70
2021/12/06 02:53:35;;;;;;;16.73;9.23;;;21.70;56.80;;;;;;5078542;28;20048;-70
2021/12/06 02:56:06;;;;;;;14.95;8.55;;;21.80;56.70;;;;;;5061264;28;20105;-70
2021/12/06 03:01:05;;;;;;;16.33;9.55;;;21.60;56.70;;;;;;5078205;28;20056;-70
2021/12/06 03:03:32;;;;;;;14.45;7.35;;;21.80;56.90;;;;;;5061269;28;20073;-70
2021/12/06 03:05:58;;;;;;;15.63;8.30;;;21.70;56.80;;;;;;5061058;28;20037;-70
2021/12/06 03:08:41;;;;;;;14.23;8.30;;;21.70;56.80;;;;;;5078350;28;20099;-70
2021/12/06 03:11:15;;;;;;;17.15;8.05;;;21.60;56.70;;;;;;5061184;28;20053;-70
2021/12/06 03:13:42;;;;;;;16.58;7.78;;;21.70;56.80;;;;;;5078399;28;20044;-70
2021/12/06 03:16:10;;;;;;;14.45;8.05;;;21.80;56.70;;;;;;5060757;28;20114;-70
2021/12/06 03:18:36;;;;;;;21.75;9.90;;;21.70;56.60;;;;;;5060870;28;20045;-70
2021/12/06 03:21:03;;;;;;;16.10;8.32;;;21.70;56.60;;;;;;5078104;28;20051;-70
2021/12/06 03:23:30;;;;;;;16.67;8.68;;;21.80;56.50;;;;;;5078022;28;20041;-70
2021/12/06 03:25:56;;;;;;;15.15;8.60;;;21.60;56.30;;;;;;5077850;28;20053;-70
2021/12/06 03:28:23;;;;;;;14.05;8.00;;;21.60;56.40;;;;;;5060648;28;20041;-70
2021/12/06 03:30:49;;;;;;;17.48;8.35;;;21.70;56.40;;;;;;5077604;28;20059;-70
2021/12/06 03:33:15;;;;;;;19.98;9.68;;;21.60;56.40;;;;;;5060828;28;20043;-70
2021/12/06 03:35:42;;;;;;;22.33;10.02;;;21.60;56.20;;;;;;5060196;28;20109;-70
2021/12/06 03:38:09;;;;;;;19.77;9.88;;;21.80;56.20;;;;;;5093917;28;20052;-70
2021/12/06 03:40:35;;;;;;;20.50;9.95;;;21.70;56.10;;;;;;5077581;28;20068;-70
2021/12/06 03:43:01;;;;;;;22.38;11.20;;;21.70;56.10;;;;;;5060312;28;20105;-70
2021/12/06 03:45:29;;;;;;;18.20;9.30;;;21.80;56.00;;;;;;5060317;28;20048;-70
2021/12/06 03:47:56;;;;;;;21.17;9.43;;;21.90;56.00;;;;;;5060484;28;20040;-70
2021/12/06 03:50:22;;;;;;;14.05;8.95;;;21.70;55.90;;;;;;5060207;28;20045;-70
2021/12/06 03:52:50;;;;;;;15.40;9.13;;;21.80;55.80;;;;;;5076583;28;20045;-70
2021/12/06 03:55:16;;;;;;;14.93;8.23;;;21.80;55.80;;;;;;5059942;28;20052;-70
2021/12/06 03:57:43;;;;;;;17.38;8.32;;;21.70;55.90;;;;;;5060097;28;20108;-70
2021/12/06 04:00:12;;;;;;;18.83;8.90;;;21.80;55.90;;;;;;5060267;28;20076;-70
2021/12/06 04:02:48;;;;;;;13.13;8.30;;;21.70;55.90;;;;;;5056661;28;20112;-70
2021/12/06 04:05:15;;;;;;;16.83;8.13;;;21.80;55.80;;;;;;5093129;28;20053;-70
2021/12/06 04:07:41;;;;;;;17.20;9.15;;;21.70;55.90;;;;;;5077286;28;20041;-70
2021/12/06 04:10:09;;;;;;;13.85;7.57;;;21.60;55.80;;;;;;5076911;28;20037;-71
2021/12/06 04:12:37;;;;;;;16.23;8.98;;;21.60;55.90;;;;;;5059308;28;20071;-70
2021/12/06 04:15:08;;;;;;;16.35;8.88;;;21.50;55.90;;;;;;5059692;28;20044;-70
2021/12/06 04:17:36;;;;;;;20.90;9.68;;;21.60;56.00;;;;;;5059710;28;20072;-70
2021/12/06 04:20:07;;;;;;;13.20;7.97;;;21.60;56.00;;;;;;5059943;28;20041;-70
2021/12/06 04:22:33;;;;;;;16.70;9.02;;;21.70;55.90;;;;;;5059767;28;20037;-70
2021/12/06 04:25:02;;;;;;;13.77;8.50;;;21.60;55.80;;;;;;5059417;28;20041;-70
2021/12/06 04:27:30;;;;;;;15.73;9.25;;;21.60;55.70;;;;;;5059744;28;20045;-70
2021/12/06 04:29:57;;;;;;;18.30;9.55;;;21.60;55.70;;;;;;5059542;28;20104;-70
2021/12/06 04:32:24;;;;;;;16.75;9.70;;;21.50;55.70;;;;;;5076770;28;20049;-70
2021/12/06 04:34:52;;;;;;;16.88;9.48;;;21.60;56.10;;;;;;5059451;28;20040;-70
2021/12/06 04:37:20;;;;;;;16.20;10.10;;;21.60;56.00;;;;;;5093073;28;20049;-70
2021/12/06 04:39:48;;;;;;;22.25;10.93;;;21.60;55.90;;;;;;5059249;28;20113;-70
2021/12/06 04:42:15;;;;;;;17.67;8.77;;;21.70;55.90;;;;;;5059565;28;20104;-70
2021/12/06 04:44:42;;;;;;;18.13;10.27;;;21.70;55.90;;;;;;5058988;28;20064;-70
2021/12/06 04:47:08;;;;;;;20.02;10.30;;;21.70;55.60;;;;;;5059272;28;20101;-70
2021/12/06 04:49:35;;;;;;;17.23;10.05;;;21.80;55.50;;;;;;5092888;28;20032;-70
2021/12/06 04:52:06;;;;;;;19.85;10.05;;;21.80;55.30;;;;;;5059395;28;20064;-70
2021/12/06 04:54:38;;;;;;;19.65;10.43;;;21.80;55.30;;;;;;5059496;28;20048;-70
2021/12/06 04:57:17;;;;;;;17.17;9.10;;;21.90;55.40;;;;;;5059296;28;20049;-70
2021/12/06 04:59:55;;;;;;;15.15;8.73;;;21.80;55.30;;;;;;5059328;28;20048;-70
2021/12/06 05:02:32;;;;;;;16.10;8.90;;;21.70;55.50;;;;;;5058590;28;20053;-70
2021/12/06 05:05:07;;;;;;;15.00;8.85;;;21.70;55.60;;;;;;5058530;28;20144;-70
2021/12/06 05:07:40;;;;;;;16.77;9.45;;;21.80;55.80;;;;;;5058587;28;20045;-71
2021/12/06 05:10:07;;;;;;;;;;;21.60;56.40;;;;;;5058991;28;20041;-68
2021/12/06 05:12:33;;;;;;;16.50;8.43;;;21.80;56.60;;;;;;5058655;28;19909;-68
2021/12/06 05:15:01;;;;;;;17.38;9.73;;;21.90;60.60;;;;;;5075606;28;20048;-69
2021/12/06 05:17:28;;;;;;;18.30;8.85;;;22.60;62.80;;;;;;5058530;28;20040;-69
2021/12/06 05:19:56;;;;;;;17.60;9.13;;;22.80;61.10;;;;;;5058219;28;20064;-69
2021/12/06 05:22:24;;;;;;;18.02;9.60;;;23.00;60.00;;;;;;5059304;28;20041;-68
2021/12/06 05:24:51;;;;;;;17.80;9.07;;;22.90;57.00;;;;;;5079571;28;20045;-68
2021/12/06 05:27:27;;;;;;;20.42;9.32;;;22.70;56.50;;;;;;5062057;28;20048;-68
2021/12/06 05:29:57;;;;;;;16.35;8.30;;;22.60;56.70;;;;;;5062364;28;20064;-69
2021/12/06 05:32:30;;;;;;;20.58;9.10;;;22.50;57.60;;;;;;5062217;28;20048;-68
2021/12/06 05:35:05;;;;;;;18.17;9.57;;;22.40;58.00;;;;;;5079428;28;20036;-69
2021/12/06 05:37:31;;;;;;;16.88;8.48;;;22.40;58.10;;;;;;5079409;28;20075;-68
2021/12/06 05:39:58;;;;;;;36.10;17.45;;;22.40;58.30;;;;;;5079276;28;20108;-69
2021/12/06 05:42:24;;;;;;;34.40;15.55;;;22.20;58.30;;;;;;5079196;28;20037;-70
2021/12/06 05:44:51;;;;;;;33.30;14.57;;;22.20;58.30;;;;;;5079301;28;20044;-68
2021/12/06 05:47:17;;;;;;;36.20;17.30;;;22.30;58.30;;;;;;5079291;28;20063;-67
2021/12/06 05:49:43;;;;;;;1.30;1.00;;;22.10;58.60;;;;;;5079041;28;20132;-70
2021/12/06 05:52:09;;;;;;;2.28;2.15;;;22.20;58.50;;;;;;5079192;28;20044;-70
2021/12/06 05:54:37;;;;;;;7.25;3.58;;;22.30;57.10;;;;;;5079183;28;20163;-70
2021/12/06 05:57:06;;;;;;;9.70;3.88;;;22.60;53.00;;;;;;5075299;28;20049;-69
2021/12/06 05:59:32;;;;;;;3.08;2.33;;;22.80;50.70;;;;;;5079058;28;20040;-69
2021/12/06 06:01:58;;;;;;;5.93;2.72;;;22.90;49.10;;;;;;5078866;28;20044;-70
2021/12/06 06:04:26;;;;;;;4.93;3.50;;;22.90;48.40;;;;;;5078645;28;20049;-70
2021/12/06 06:06:53;;;;;;;14.20;6.90;;;22.90;47.60;;;;;;5048472;28;20050;-68
2021/12/06 06:09:19;;;;;;;10.45;5.78;;;22.90;44.00;;;;;;5058777;28;20102;-68
2021/12/06 06:11:45;;;;;;;9.25;5.38;;;22.80;45.30;;;;;;5058489;28;20044;-68
2021/12/06 06:14:12;;;;;;;9.80;4.82;;;22.80;44.60;;;;;;5058611;28;20049;-68
2021/12/06 06:16:47;;;;;;;9.60;4.03;;;22.80;45.10;;;;;;5058386;28;20061;-67
2021/12/06 06:19:18;;;;;;;9.20;4.47;;;22.80;45.80;;;;;;5058544;28;20132;-69
2021/12/06 06:21:45;;;;;;;8.90;3.85;;;22.70;44.30;;;;;;5058665;28;20045;-69
2021/12/06 06:24:12;;;;;;;8.95;4.93;;;22.80;45.00;;;;;;5058106;28;20053;-68
2021/12/06 06:26:38;;;;;;;7.35;3.63;;;22.70;43.80;;;;;;5058326;28;20092;-68
2021/12/06 06:29:05;;;;;;;8.20;5.00;;;22.70;45.10;;;;;;5064528;28;20111;-68
2021/12/06 06:31:31;;;;;;;8.77;3.85;;;22.80;44.40;;;;;;5066424;28;20041;-68
2021/12/06 06:33:58;;;;;;;9.73;4.07;;;22.80;44.40;;;;;;5067615;28;20052;-67
2021/12/06 06:36:24;;;;;;;8.02;4.45;;;22.90;44.30;;;;;;5066705;28;20092;-68
2021/12/06 06:38:50;;;;;;;17.08;9.15;;;22.90;44.00;;;;;;5066638;28;20053;-68
2021/12/06 06:41:16;;;;;;;21.50;9.85;;;22.90;56.80;;;;;;5068592;28;20068;-68
2021/12/06 06:43:42;;;;;;;22.33;10.10;;;22.90;55.10;;;;;;5072765;28;20052;-68
2021/12/06 06:46:08;;;;;;;22.88;9.32;;;22.80;55.60;;;;;;5077456;28;20072;-68
2021/12/06 06:48:34;;;;;;;20.50;9.48;;;22.70;56.20;;;;;;5077834;28;20047;-68
2021/12/06 06:51:01;;;;;;;21.60;9.65;;;22.80;57.20;;;;;;5077900;28;20033;-70
2021/12/06 06:53:28;;;;;;;18.50;10.13;;;22.80;57.30;;;;;;5076715;28;20059;-69
2021/12/06 06:55:55;;;;;;;20.88;9.25;;;22.60;57.50;;;;;;5066433;28;20113;-69
2021/12/06 06:58:22;;;;;;;21.90;11.90;;;22.50;57.70;;;;;;5065240;28;20046;-69
2021/12/06 07:00:48;;;;;;;27.60;14.82;;;22.50;58.30;;;;;;5065004;28;20041;-69
2021/12/06 07:03:14;;;;;;;27.15;13.55;;;22.50;58.60;;;;;;5076986;28;20053;-68
2021/12/06 07:05:41;;;;;;;34.50;14.07;;;22.40;58.60;;;;;;5057646;28;20106;-69
2021/12/06 07:08:08;;;;;;;31.52;14.57;;;22.40;58.70;;;;;;5056783;28;20052;-69
2021/12/06 07:10:34;;;;;;;28.35;14.35;;;22.50;58.80;;;;;;5057794;28;20047;-68
2021/12/06 07:13:04;;;;;;;24.55;12.50;;;22.40;58.70;;;;;;5056915;28;20064;-69
2021/12/06 07:15:33;;;;;;;23.52;12.75;;;22.40;59.00;;;;;;5057252;28;20033;-69
2021/12/06 07:18:01;;;;;;;27.83;11.98;;;22.40;59.10;;;;;;5057303;28;20045;-69
2021/12/06 07:20:29;;;;;;;29.48;12.98;;;22.30;59.50;;;;;;5056870;28;20049;-69
2021/12/06 07:22:55;;;;;;;23.95;12.02;;;22.30;59.90;;;;;;5056974;28;20049;-68
2021/12/06 07:25:23;;;;;;;20.55;10.32;;;22.30;60.40;;;;;;5056935;28;20125;-70
2021/12/06 07:27:51;;;;;;;22.23;11.13;;;22.20;60.50;;;;;;5056927;28;20041;-69
2021/12/06 07:30:18;;;;;;;21.58;9.55;;;22.20;60.40;;;;;;5057046;28;20045;-69
2021/12/06 07:32:45;;;;;;;24.55;10.77;;;22.10;60.60;;;;;;5056367;28;20063;-69
2021/12/06 07:35:12;;;;;;;22.65;10.50;;;22.10;60.60;;;;;;5056657;28;20045;-69
2021/12/06 07:37:39;;;;;;;23.13;11.90;;;22.10;61.10;;;;;;5056769;28;20045;-69
2021/12/06 07:40:08;;;;;;;28.00;11.73;;;22.00;61.10;;;;;;5056695;28;20113;-69
2021/12/06 07:42:35;;;;;;;25.02;11.77;;;22.00;61.60;;;;;;5056490;28;20135;-69
2021/12/06 07:45:04;;;;;;;30.02;12.50;;;22.00;61.50;;;;;;5055123;28;20042;-68
2021/12/06 07:47:30;;;;;;;27.00;12.70;;;22.10;61.60;;;;;;5055204;28;20049;-68
2021/12/06 07:49:56;;;;;;;28.38;12.27;;;22.10;61.50;;;;;;5055378;28;20041;-68
2021/12/06 07:52:22;;;;;;;21.95;12.00;;;22.10;61.70;;;;;;5055351;28;20043;-68
2021/12/06 07:54:48;;;;;;;24.85;11.15;;;22.20;61.80;;;;;;5055054;28;20049;-68
2021/12/06 07:57:14;;;;;;;22.50;12.32;;;22.20;61.90;;;;;;5055226;28;20053;-68
2021/12/06 07:59:40;;;;;;;27.67;13.38;;;22.30;62.10;;;;;;5055199;28;20050;-68
2021/12/06 08:02:08;;;;;;;24.38;12.15;;;22.30;62.40;;;;;;5055089;28;20041;-68
2021/12/06 08:04:34;;;;;;;27.40;12.40;;;22.30;62.60;;;;;;5056328;28;20053;-67
2021/12/06 08:07:01;;;;;;;28.13;12.75;;;22.40;62.70;;;;;;5056537;28;20045;-69
2021/12/06 08:09:27;;;;;;;27.90;12.93;;;22.40;62.60;;;;;;5056155;28;20101;-68
2021/12/06 08:11:53;;;;;;;23.85;11.85;;;22.50;62.70;;;;;;5056289;28;20037;-68
2021/12/06 08:14:20;;;;;;;26.60;12.05;;;22.40;62.50;;;;;;5056242;28;20064;-68
2021/12/06 08:16:46;;;;;;;30.52;13.15;;;22.50;61.70;;;;;;5056149;28;20064;-68
2021/12/06 08:19:12;;;;;;;34.28;13.50;;;22.30;61.20;;;;;;5056128;28;20105;-68
2021/12/06 08:21:39;;;;;;;25.45;12.35;;;22.50;61.10;;;;;;5056141;28;20076;-68
2021/12/06 08:24:08;;;;;;;26.23;12.13;;;22.30;60.90;;;;;;5055875;28;20049;-69
2021/12/06 08:26:39;;;;;;;26.27;11.27;;;22.20;60.60;;;;;;5055597;28;20458;-68
2021/12/06 08:29:07;;;;;;;29.27;12.50;;;22.30;60.80;;;;;;5055924;28;20100;-68
2021/12/06 08:31:37;;;;;;;27.35;12.98;;;22.30;60.60;;;;;;5058285;28;20100;-69
2021/12/06 08:34:04;;;;;;;25.27;13.60;;;22.20;60.10;;;;;;5054965;28;20037;-69
2021/12/06 08:36:30;;;;;;;23.15;12.70;;;22.20;60.50;;;;;;5058617;28;20112;-69
2021/12/06 08:38:57;;;;;;;26.80;12.27;;;22.30;61.10;;;;;;5062008;28;20053;-69
2021/12/06 08:41:29;;;;;;;24.30;12.38;;;22.30;60.80;;;;;;5054609;28;20130;-69
2021/12/06 08:43:57;;;;;;;26.02;12.52;;;22.30;59.60;;;;;;5055265;28;20057;-68
2021/12/06 08:46:26;;;;;;;28.98;13.18;;;22.30;59.80;;;;;;5055721;28;20110;-69
2021/12/06 08:48:53;;;;;;;22.90;12.35;;;22.30;61.00;;;;;;5055810;28;20078;-68
2021/12/06 08:51:40;;;;;;;19.83;9.55;;;22.30;61.50;;;;;;5055736;28;20041;-78
2021/12/06 08:54:08;;;;;;;19.95;8.80;;;22.50;61.50;;;;;;5038638;28;20037;-74
2021/12/06 08:56:35;;;;;;;22.35;10.55;;;22.70;58.90;;;;;;5056305;28;20121;-73
2021/12/06 08:59:02;;;;;;;21.75;10.35;;;22.80;56.00;;;;;;5061973;28;20042;-74
2021/12/06 09:01:30;;;;;;;23.52;10.13;;;22.80;53.00;;;;;;5062366;28;20060;-75
2021/12/06 09:03:56;;;;;;;20.35;11.20;;;23.00;50.80;;;;;;5062145;28;20064;-71
2021/12/06 09:06:22;;;;;;;21.48;10.38;;;23.00;48.80;;;;;;5061119;28;20104;-71
2021/12/06 09:08:48;;;;;;;20.33;10.05;;;23.00;47.50;;;;;;5062370;28;20064;-71
2021/12/06 09:11:15;;;;;;;21.35;11.18;;;23.20;46.60;;;;;;5062268;28;20060;-67
2021/12/06 09:13:43;;;;;;;25.17;11.57;;;23.10;45.80;;;;;;5062077;28;20460;-67
2021/12/06 09:16:11;;;;;;;24.15;10.23;;;23.10;45.10;;;;;;5062112;28;20049;-66
2021/12/06 09:18:40;;;;;;;23.17;10.32;;;23.10;45.30;;;;;;5061603;28;20093;-65
2021/12/06 09:21:10;;;;;;;17.52;10.00;;;23.00;45.30;;;;;;5061805;28;20052;-65
2021/12/06 09:23:36;;;;;;;21.85;9.68;;;23.10;46.10;;;;;;5061829;28;20080;-65
2021/12/06 09:26:04;;;;;;;21.05;10.70;;;23.10;46.50;;;;;;5061910;28;20056;-65
2021/12/06 09:28:31;;;;;;;28.38;15.18;;;23.10;46.90;;;;;;5062174;28;20041;-65
2021/12/06 09:30:57;;;;;;;28.83;15.23;;;23.00;47.00;;;;;;5062264;28;20065;-68
2021/12/06 09:33:24;;;;;;;28.60;14.10;;;22.90;47.60;;;;;;5061907;28;20045;-68
2021/12/06 09:35:54;;;;;;;20.08;11.35;;;22.80;48.40;;;;;;5061814;28;20037;-67
2021/12/06 09:38:28;;;;;;;22.20;11.27;;;22.70;49.10;;;;;;5068624;28;20068;-68
2021/12/06 09:40:57;;;;;;;23.85;11.07;;;22.50;49.60;;;;;;5060900;28;20121;-69
2021/12/06 09:43:23;;;;;;;14.60;7.47;;;22.50;50.00;;;;;;5061456;28;20041;-67
2021/12/06 09:45:50;;;;;;;11.45;6.45;;;22.60;46.80;;;;;;5061786;28;20068;-69
2021/12/06 09:48:18;;;;;;;282.77;56.05;;;22.60;48.10;;;;;;5061792;28;20056;-69
2021/12/06 09:50:55;;;;;;;76.18;26.65;;;23.00;52.30;;;;;;5062086;28;20045;-69
2021/12/06 09:53:28;;;;;;;86.85;27.73;;;23.40;59.40;;;;;;5062035;28;20037;-70
2021/12/06 09:55:59;;;;;;;105.78;28.42;;;23.50;56.20;;;;;;5061199;28;20049;-69
2021/12/06 09:58:26;;;;;;;64.20;26.20;;;23.60;52.80;;;;;;5061710;28;20053;-70
2021/12/06 10:00:59;;;;;;;33.28;12.07;;;23.70;52.20;;;;;;5061761;28;20049;-69
2021/12/06 10:03:29;;;;;;;;;;;23.80;50.30;;;;;;5054257;28;20054;-70
2021/12/06 10:06:02;;;;;;;17.73;7.22;;;23.70;50.00;;;;;;5042017;28;19941;-69
2021/12/06 10:08:39;;;;;;;24.02;8.45;;;23.90;50.50;;;;;;5040899;28;20056;-67
2021/12/06 10:11:07;;;;;;;24.08;7.00;;;23.70;49.90;;;;;;5038912;28;20042;-67
2021/12/06 10:13:34;;;;;;;20.05;8.93;;;23.80;50.00;;;;;;5038645;28;20030;-68
2021/12/06 10:16:01;;;;;;;12.02;6.85;;;23.90;50.60;;;;;;5038402;28;20041;-66
2021/12/06 10:18:27;;;;;;;13.38;6.10;;;23.90;51.40;;;;;;5038545;28;20061;-67
2021/12/06 10:20:53;;;;;;;19.63;6.68;;;23.90;51.10;;;;;;5038441;28;20065;-67
2021/12/06 10:23:20;;;;;;;15.75;6.28;;;24.00;50.20;;;;;;5054181;28;20065;-67
2021/12/06 10:25:49;;;;;;;14.15;5.53;;;23.90;50.70;;;;;;5038568;28;20072;-67
2021/12/06 10:28:17;;;;;;;11.13;6.18;;;23.90;50.00;;;;;;5038472;28;20157;-66
2021/12/06 10:30:49;;;;;;;15.30;6.18;;;24.00;50.80;;;;;;5038304;28;20056;-66
2021/12/06 10:33:22;;;;;;;17.63;6.45;;;24.00;53.30;;;;;;5038452;28;20119;-67
2021/12/06 10:35:52;;;;;;;13.15;6.82;;;24.30;52.30;;;;;;5038348;28;20038;-66
2021/12/06 10:38:21;;;;;;;11.10;6.45;;;24.30;51.40;;;;;;5038141;28;20042;-67
2021/12/06 10:40:48;;;;;;;16.75;8.23;;;24.10;51.30;;;;;;5052807;28;20065;-67
2021/12/06 10:43:16;;;;;;;11.80;6.10;;;24.40;54.90;;;;;;5057579;28;20063;-67
2021/12/06 10:45:47;;;;;;;15.07;6.63;;;24.80;55.70;;;;;;5057234;28;20045;-65
2021/12/06 10:48:28;;;;;;;17.75;10.05;;;24.70;42.70;;;;;;5057971;28;20033;-66
2021/12/06 10:50:56;;;;;;;19.48;10.90;;;24.50;49.20;;;;;;5057836;28;20060;-66
2021/12/06 10:53:28;;;;;;;17.17;10.82;;;24.40;49.70;;;;;;5057810;28;20052;-66
2021/12/06 10:55:59;;;;;;;25.88;12.27;;;24.20;53.80;;;;;;5057837;28;20105;-66
2021/12/06 10:58:27;;;;;;;22.38;11.50;;;24.60;57.60;;;;;;5057608;28;20061;-66
2021/12/06 11:01:28;;;;;;;21.02;11.63;;;24.80;59.80;;;;;;5057679;28;20084;-66
2021/12/06 11:03:56;;;;;;;22.77;12.10;;;25.30;55.40;;;;;;5045878;28;20060;-64
2021/12/06 11:06:33;;;;;;;20.48;11.85;;;25.20;49.30;;;;;;5057582;28;20049;-67
2021/12/06 11:09:04;;;;;;;19.48;11.82;;;25.30;48.80;;;;;;5057532;28;20050;-67
2021/12/06 11:11:37;;;;;;;17.73;10.35;;;25.40;47.90;;;;;;5057536;28;20053;-67
2021/12/06 11:14:05;;;;;;;;;;;25.50;47.50;;;;;;5057990;28;20045;-67
2021/12/06 11:16:37;;;;;;;23.45;12.60;;;25.50;47.50;;;;;;5057350;28;19908;-65
2021/12/06 11:19:10;;;;;;;23.55;12.65;;;25.50;47.80;;;;;;5057122;28;20049;-67
2021/12/06 11:21:47;;;;;;;23.00;13.02;;;25.40;48.10;;;;;;5056875;28;20041;-67
2021/12/06 11:24:31;;;;;;;25.42;13.38;;;25.20;48.50;;;;;;5073161;28;20069;-67
2021/12/06 11:27:20;;;;;;;21.92;13.18;;;25.20;48.80;;;;;;5057067;28;20069;-69
2021/12/06 11:29:49;;;;;;;25.20;12.82;;;25.10;49.00;;;;;;5056953;28;20050;-68
2021/12/06 11:32:26;;;;;;;21.58;11.95;;;25.00;49.20;;;;;;5057098;28;20046;-68
2021/12/06 11:34:57;;;;;;;22.38;12.63;;;25.00;49.30;;;;;;5056775;28;20050;-67
2021/12/06 11:37:29;;;;;;;25.55;11.27;;;24.70;49.60;;;;;;5056869;28;20080;-67
2021/12/06 11:40:05;;;;;;;20.30;10.95;;;24.60;50.10;;;;;;5056807;28;20171;-66
2021/12/06 11:42:45;;;;;;;17.08;11.07;;;24.50;50.60;;;;;;5057051;28;20052;-66
2021/12/06 11:45:11;;;;;;;21.83;11.82;;;24.40;50.90;;;;;;5057012;28;20064;-65
2021/12/06 11:47:37;;;;;;;21.88;12.02;;;24.40;51.40;;;;;;5056599;28;20033;-69
2021/12/06 11:50:05;;;;;;;24.20;11.85;;;24.20;51.90;;;;;;5056495;28;20037;-68
2021/12/06 11:52:34;;;;;;;23.27;11.75;;;24.00;52.60;;;;;;5056857;28;20063;-69
2021/12/06 11:55:09;;;;;;;21.48;12.50;;;23.90;53.20;;;;;;5056379;28;20077;-70
2021/12/06 11:57:42;;;;;;;21.10;12.23;;;23.90;53.60;;;;;;5056614;28;20049;-68
2021/12/06 12:00:14;;;;;;;19.55;11.40;;;23.80;53.70;;;;;;5056510;28;20042;-69
2021/12/06 12:02:51;;;;;;;24.10;12.77;;;23.80;54.00;;;;;;5049085;28;20479;-68
2021/12/06 12:05:31;;;;;;;20.65;10.85;;;23.70;54.40;;;;;;5036725;28;20093;-68
2021/12/06 12:08:15;;;;;;;19.58;10.93;;;23.60;54.30;;;;;;5036497;28;20041;-68
2021/12/06 12:10:49;;;;;;;17.60;10.23;;;23.60;54.50;;;;;;5036789;28;20034;-69
2021/12/06 12:13:29;;;;;;;23.15;9.98;;;23.60;54.40;;;;;;5036310;28;20051;-69
2021/12/06 12:16:04;;;;;;;20.88;10.77;;;23.60;54.50;;;;;;5036421;28;20050;-68
2021/12/06 12:18:31;;;;;;;22.23;10.85;;;23.50;54.70;;;;;;5036113;28;20061;-68
2021/12/06 12:20:58;;;;;;;23.73;10.23;;;23.50;54.40;;;;;;5035883;28;20101;-67
2021/12/06 12:23:26;;;;;;;20.48;10.43;;;23.50;54.90;;;;;;5035967;28;20403;-67
2021/12/06 12:26:05;;;;;;;18.88;9.85;;;23.50;54.90;;;;;;5036477;28;20046;-67
2021/12/06 12:28:48;;;;;;;18.17;10.20;;;23.40;54.50;;;;;;5035911;28;20041;-67
2021/12/06 12:31:15;;;;;;;22.17;10.20;;;23.50;54.80;;;;;;5045863;28;20038;-67
2021/12/06 12:33:42;;;;;;;19.40;9.90;;;23.50;55.70;;;;;;5054639;28;20041;-68
2021/12/06 12:36:18;;;;;;;21.90;11.02;;;23.40;56.20;;;;;;5054938;28;20072;-67
2021/12/06 12:38:47;;;;;;;19.70;10.25;;;23.40;56.80;;;;;;5055550;28;20052;-66
2021/12/06 12:41:16;;;;;;;18.50;10.18;;;23.50;57.60;;;;;;5074755;28;20049;-66
2021/12/06 12:43:47;;;;;;;23.23;10.55;;;23.40;57.20;;;;;;5075743;28;20056;-68
2021/12/06 12:46:30;;;;;;;22.50;11.35;;;23.60;62.80;;;;;;5068833;28;20053;-67
2021/12/06 12:49:00;;;;;;;19.80;11.95;;;24.10;63.10;;;;;;5055446;28;20041;-65
2021/12/06 12:51:40;;;;;;;19.55;11.00;;;24.40;61.60;;;;;;5054864;28;20057;-65
2021/12/06 12:54:20;;;;;;;20.17;9.65;;;24.60;62.90;;;;;;5055886;28;20048;-64
2021/12/06 12:56:51;;;;;;;22.65;11.95;;;24.50;58.70;;;;;;5055831;28;20045;-64
2021/12/06 12:59:22;;;;;;;20.55;12.27;;;24.30;57.90;;;;;;5055856;28;20055;-65